Pagrindinis puslapis
METAR-TAF:

METAR-TAF

Oro uostai :

Yüksekova, Turkija

platuma: 37-33-06N, ilguma: 44-14-01E, Aukštis: 1950 m

Dabartinis oras

Ataskaita buvo paskelbta 1 valandą ir 0 minutes, ne 07:50 UTC
Vėjas 2 kt nuo kintamojo kryptimis
Temperatūra 17°C
Drėgmė 36%
Slėgis 1027 hPa
Matomumas 10 km arba daugiau
Išsisklaidę debesys ne aukštis 4000 ft

METAR: LTCW 180750Z VRB02KT 9999 SCT040 17/02 Q1027

Laikas: 11:50 (08:50 UTC)

Prognozė

Ataskaita buvo paskelbta 1 valandą ir 10 minutes, ne 07:40 UTC
Prognozė galioja nuo 18 metu 09 UTC su 18 metu 18 UTC
Vėjas 2 kt nuo kintamojo kryptimis
Matomumas 10 km arba daugiau
Išsisklaidę debesys ne aukštis 4000 ft
Su prošvaistėmis ne aukštis 7000 ft
Tapsmas
nuo 18 metu 10 UTC su 18 metu 12 UTC
Vėjas 12 kt iš Pietų/Pietvakarių

TAF: LTCW 180740Z 1809/1818 VRB02KT 9999 SCT040 BKN070 BECMG 1810/1812 20012KT

Orai ataskaitas ir orų prognozės (METAR, TAF).

turimą stotys yra geltonos ir raudonos taškus žemėlapyje.

Perkelti pele per norėdami pamatyti stoties vardą.

Tada spustelėkite, norėdami matyti oro stebėjimo ir prognozės.

Norėdami pakeisti žemėlapį: spustelėkite ant žalios mygtukų su juodo kryžiaus žemyn,; žalią mygtuką su brūkšneliu, jei norite nutolinti; arba žalių rodyklių gretimoms žemėlapius.


METAR-TAF: